KAWO2: Kaw Lake

Data processed at Thu May 23 2019 23:50


All information presented herein is the property of the government of the United States of America and may be revised or deleted at any time without prior notice.
Dissemination of this information without the expressed written consent of the Public Affairs Office, Tulsa District U.S. Army Corps of Engineers is strictly prohibited.
These data are gathered electronically and, as presented, have not undergone any form of quality control. These data are not guaranteed to be valid or correct.
Go to home page.
Go to station list.
Go to home page.

Upstream stations:

Downstream station:
Previous Day
Next Day
Current Day
    
SHEF ID:       KAWO2     Kaw Lake
STATION TYPE:  RESERVOIR
Flood Pool:  Bottom =  1010.00, Top =  1044.50

               PRECIP     STAGE  RIV-FLOW ELEVATION   STORAGE   TW-ELEV    INFLOW   RELEASE  AIR-TEMP  WIND-DIRWIND-SPEED REL-HUMID SOLAR-RAD   VOLTAGE  BAT-LOAD
                   in        ft       cfs        ft     ac-ft        ft       cfs       cfs         F       deg       mph         %      W/m2      volt      volt
              Ccp-Rev   Ccp-Rev   Ccp-Rev   Ccp-Rev   Ccp-Rev   Ccp-Rev  Rev-Regi  Rev-Regi   Ccp-Rev   Ccp-Rev   Ccp-Rev   Ccp-Rev   Ccp-Rev   Ccp-Rev   Ccp-Rev
(US/Central)
05/23 00:00      0.02     15.37     57128   1044.10   1239030      ----    124894     57128     67.71     38.60     13.60     90.80      0.00     12.74     12.57
05/23 01:00      0.00     15.39     57249   1044.21   1243115      ----    125663     57249     66.63     39.30     18.10     85.77      0.00     12.73     12.57
05/23 02:00      0.00     15.51     57980   1044.40   1250172      ----    120392     57980     66.36     50.40     17.80     87.96      0.00     12.72     12.57
05/23 03:00      0.01     15.50     57919   1044.55   1255742      ----    122387     57919     66.51     57.30     14.90     90.75      0.00     12.71     12.57
05/23 04:00      0.00     15.40     57310   1044.66   1259828      ----    124416     57310     66.25     61.70     11.80     91.47      0.00     12.69     12.49
05/23 05:00      0.01     15.63     58714   1044.82   1265770      ----    120264     58714     65.82     58.80     11.20     92.73      0.00     12.69     12.49
05/23 06:00      0.00     15.51     57980   1044.95   1270598      ----    119817     57980     65.70     47.70     10.70     93.68      0.00     12.68     12.49
05/23 07:00      0.00     15.50     57919   1045.09   1275911      ----    123086     57919     65.77     43.20      9.60     94.09      0.00     12.67     12.49
05/23 08:00      0.00     15.55     58224   1045.23   1281287      ----    120848     58224     66.27     38.10      7.40     95.51     26.90     12.71     12.49
05/23 09:00      0.00     15.59     58469   1045.37   1286663      ----    122210     58469     66.67     48.60      7.40     96.03     21.70     12.72     12.49
05/23 10:00      0.00     15.54     58163   1045.50   1291655      ----    120688     58163     67.06     35.40      6.90     96.64     72.50     13.05     12.49
05/23 11:00      0.00     15.66     58898   1045.64   1297031      ----    119056     58898     68.50     23.40      7.80     97.06    122.30     13.15     12.89
05/23 12:00      0.00     15.65     58836   1045.76   1301639      ----    115821     58836     73.27     93.40      5.90     94.35    234.60     13.57     12.97
05/23 13:00      0.00     15.77     59575   1045.88   1306247      ----    114333     59575     78.31    137.00     11.80     83.75    452.30     13.73     13.29
05/23 14:00      0.00     16.15     61936   1045.98   1310087      ----    112351     61936     81.54    179.40     18.50     73.06    618.50     13.73     13.53
05/23 15:00      0.00     16.84     66313   1046.08   1313984      ----    110962     66313     82.35    183.70     18.50     69.72    546.70     13.53     13.21
05/23 16:00      0.00     16.85     66377   1046.18   1317895      ----    112113     66377     82.80    179.70     17.10     68.37    398.20     13.73     13.29
05/23 17:00      0.00     17.90     73261   1046.26   1321024      ----    109405     73261     81.64    176.80     14.70     70.28    183.80     13.48     13.21
05/23 18:00      0.00     17.94     73528   1046.36   1324935      ----    109681     73528     82.63    173.20     16.60     67.81    262.90     13.63     13.13
05/23 19:00      0.00     18.62      ----   1046.40   1326500      ----    106647     74764     82.51    173.10     18.20     66.05    199.40     13.06     13.21
05/23 20:00      0.00     18.87      ----   1046.48   1329629      ----    106714     74823     80.94    174.90     16.20     66.36     83.90     12.83     12.81
05/23 21:00      0.00     18.88      ----   1046.53   1331584      ----    103236     74859     78.08    177.30      9.70     72.74      0.00     12.77     12.65
05/23 22:00      0.00     18.90      ----   1046.60   1334322      ----    106102     74911     76.42    169.50      8.60     77.50      0.00     12.74     12.57
05/23 23:00      0.00     18.88      ----   1046.66   1336669      ----    103300     74955     75.24    166.00      7.60     80.85      0.00     12.74     12.57